Metar Cercanos

 

LEPA - Palma De Mallorc, Spain
Distance from station: ONO 38km
Actualización: 24/05/2018 10:00
Despejado
Despejado
 Viento del ENE
Viento: ENE 11 km/h
Temperatura: 22°C
Rocío: 12°C
Humedad: 53%
Barómetro: 1017 hPa
Resumen: Despejado
Visibility: greater than 10 km
2018/05/24 08:00 LEPA 240800Z 07006KT CAVOK 22/12 Q1017 NOSIG
LEMH - Mahon/Menorca Is, Spain
Distance from station: ENE 105km
Actualización: 24/05/2018 09:30
Few Clouds
Few Clouds
 Viento del SE
Viento: SE 9 km/h
Temperatura: 21°C
Rocío: 15°C
Humedad: 69%
Barómetro: 1019 hPa
Clouds: Few Clouds
Visibility: 10 km
Cloud details: Few Clouds 610 m
2018/05/24 07:30 LEMH 240730Z 13005KT 090V160 9999 FEW020 21/15 Q1019
 
LEIB - Ibiza/Es Codola, Spain
Distance from station: OSO 165km
Actualización: 24/05/2018 10:00
Parcialmente nuboso
Parcialmente nuboso
 Viento del ENE
Viento: ENE 22 km/h
Temperatura: 20°C
Rocío: 17°C
Humedad: 83%
Barómetro: 1016 hPa
Clouds: Parcialmente nuboso
Visibility: 10 km
Cloud details: Few Clouds 457 m
Parcialmente nuboso 1494 m
2018/05/24 08:00 LEIB 240800Z 06012KT 9999 FEW015 SCT049 20/17 Q1016
LEBL - Barcelona Airpor, Spain
Distance from station: NNO 225km
Actualización: 01/01/1970 01:00
NOT Current
unable to load LEBL data RC=404 Not Found
unable to load LEBL data RC=404 Not Found
 
 
LEVC - Valencia (civ/Mi, Spain
Distance from station: NO 188km
Actualización: 01/01/1970 01:00
NOT Current
unable to load LEVC data RC=404 Not Found
unable to load LEVC data RC=404 Not Found
 
LEGE - Gerona/Costa Bra, Spain
Distance from station: N 276km
Actualización: 24/05/2018 09:30
Few Clouds
Few Clouds
 Viento del SSO
Viento: SSO 6 km/h
Temperatura: 18°C
Rocío: 15°C
Humedad: 83%
Barómetro: 1018 hPa
Clouds: Few Clouds
Visibility: 9 km
Cloud details: Few Clouds 305 m
2018/05/24 07:30 LEGE 240730Z 20003KT 150V240 9000 FEW010 18/15 Q1018
 
LEAL - Alicante/El Alte, Spain
Distance from station: OSO 344km
Actualización: 24/05/2018 10:00
Few Clouds
Few Clouds
 Viento del ENE
Viento: ENE 13 km/h
Temperatura: 23°C
Rocío: 12°C
Humedad: 50%
Barómetro: 1015 hPa
Clouds: Few Clouds
Visibility: 10 km
Cloud details: Few Clouds 1829 m
2018/05/24 08:00 LEAL 240800Z 07007KT 040V110 9999 FEW060 23/12 Q1015 NOSIG
LEAM - Almeria Airport, Spain
Distance from station: SSO 56km
Actualización: 24/05/2018 09:30
Few Clouds
Few Clouds
 Viento del ENE
Viento: ENE 6 km/h, Racha: 30 km/h
Temperatura: 24°C
Rocío: 9°C
Humedad: 39%
Barómetro: 1013 hPa
Clouds: Few Clouds
Visibility: 10 km
Cloud details: Few Clouds 1524 m
2018/05/24 07:30 LEAM 240730Z 07003G16KT 9999 FEW050 24/09 Q1013
 
LEZG - Zaragoza (mil/Ci, Spain
Distance from station: NO 431km
Actualización: 01/01/1970 01:00
NOT Current
unable to load LEZG data RC=404 Not Found
unable to load LEZG data RC=404 Not Found
 
LEMD - Madrid/Barajas, Spain
Distance from station: ONO 234km
Actualización: 24/05/2018 10:00
Despejado
Despejado
 Viento del NNO
Viento: NNO 11 km/h
Temperatura: 19°C
Rocío: 15°C
Humedad: 78%
Barómetro: 1016 hPa
Resumen: Despejado
Visibility: greater than 10 km
2018/05/24 08:00 LEMD 240800Z 34006KT 310V010 CAVOK 19/15 Q1016 NOSIG
 
LEGR - Granada Airport, Spain
Distance from station: OSO 62km
Actualización: 24/05/2018 09:30
Few Clouds
Few Clouds
 Viento del O
Viento: O 6 km/h
Temperatura: 17°C
Rocío: 12°C
Humedad: 73%
Barómetro: 1014 hPa
Clouds: Few Clouds
Visibility: 10 km
Cloud details: Few Clouds 1219 m
2018/05/24 07:30 LEGR 240730Z 27003KT 230V310 9999 FEW040 17/12 Q1014
LEMG - Malaga (civ/Mil), Spain
Distance from station: OSO 227km
Actualización: 24/05/2018 10:00
Despejado
Despejado
 Viento del varies
Viento: varies 2 km/h
Temperatura: 22°C
Rocío: 11°C
Humedad: 50%
Barómetro: 1013 hPa
Resumen: Despejado
Visibility: greater than 10 km
2018/05/24 08:00 LEMG 240800Z VRB01KT CAVOK 22/11 Q1013 NOSIG
 
LEZL - Sevilla (civ/Mil, Spain
Distance from station: S 318km
Actualización: 24/05/2018 10:00
Despejado
Despejado
 Viento del SO
Viento: SO 13 km/h
Temperatura: 19°C
Rocío: 15°C
Humedad: 78%
Barómetro: 1013 hPa
Resumen: Despejado
Visibility: greater than 10 km
2018/05/24 08:00 LEZL 240800Z 22007KT 180V250 CAVOK 19/15 Q1013 NOSIG
LEVT - Vitoria, Spain
Distance from station: NO 226km
Actualización: 24/05/2018 09:30
Muy nuboso
Muy nuboso
 Viento del SO
Viento: SO 7 km/h
Temperatura: 15°C
Rocío: 13°C
Humedad: 88%
Barómetro: 1018 hPa
Clouds: Muy nuboso
Visibility: 10 km
Cloud details: Muy nuboso 396 m
2018/05/24 07:30 LEVT 240730Z 22004KT 180V250 9999 BKN013 15/13 Q1018
 
LEBB - Bilbao/Sondica, Spain
Distance from station: NNO 235km
Actualización: 24/05/2018 09:30
Few Clouds
Few Clouds
 Viento del varies
Viento: varies 2 km/h
Temperatura: 19°C
Rocío: 16°C
Humedad: 83%
Barómetro: 1016 hPa
Clouds: Few Clouds
Visibility: 7 km
Cloud details: Few Clouds 457 m
2018/05/24 07:30 LEBB 240730Z VRB01KT 7000 FEW015 19/16 Q1016 TEMPO 3000 BR
LESO - San Sebastian/Fu, Spain
Distance from station: N 231km
Actualización: 24/05/2018 09:30
Parcialmente nuboso
Parcialmente nuboso
 Viento del NNE
Viento: NNE 6 km/h
Temperatura: 20°C
Rocío: 17°C
Humedad: 83%
Barómetro: 1016 hPa
Clouds: Parcialmente nuboso
Visibility: 10 km
Cloud details: Few Clouds 1372 m
Parcialmente nuboso 1890 m
2018/05/24 07:30 LESO 240730Z 03003KT 360V070 9999 FEW045 SCT062 20/17 Q1016
 
LEVD - Valladolid(Mil/C, Spain
Distance from station: ONO 239km
Actualización: 24/05/2018 10:00
Despejado
Despejado
 Viento del ENE
Viento: ENE 11 km/h
Resumen: Despejado
Visibility: greater than 10 km
2018/05/24 08:00 LEVD 240800Z 06006KT 030V090 CAVOK 15/1
LESA - Salamanca (civ/M, Spain
Distance from station: ONO 349km
Actualización: 24/05/2018 10:00
Despejado
Despejado
 Viento del E
Viento: E 7 km/h
Resumen: Despejado
Visibility: greater than 10 km
2018/05/24 08:00 LESA 240800Z 08004KT 050V110 CAVOK 15/1
 
LEXJ - Santander/Paraya, Spain
Distance from station: NNO 247km
Actualización: 24/05/2018 10:00
Mist, Muy nuboso
Mist, Muy nuboso
 Viento del varies
Viento: varies 4 km/h
Temperatura: 19°C
Rocío: 17°C
Humedad: 88%
Barómetro: 1016 hPa
Resumen: Mist
Clouds: Muy nuboso
Visibility: 5 km
Cloud details: Few Clouds 244 m
Muy nuboso 396 m
2018/05/24 08:00 LEXJ 240800Z VRB02KT 5000 BR FEW008 BKN013 19/17 Q1016
LEAS - Asturias/Aviles, Spain
Distance from station: NO 214km
Actualización: 24/05/2018 09:30
Mist, Cubierto
Mist, Cubierto
 Viento del NE
Viento: NE 6 km/h
Temperatura: 16°C
Rocío: 16°C
Humedad: 100%
Barómetro: 1016 hPa
Resumen: Mist
Clouds: Cubierto
Visibility: 2 km
Cloud details: Few Clouds 61 m
Cubierto 457 m
2018/05/24 07:30 LEAS 240730Z 05003KT 010V090 1800 R11/1400N R29/2000N BR FEW002 OVC015 16/16 Q1016 TEMPO 1000 BCFG
 
LECO - La Coruna/Alvedr, Spain
Distance from station: ONO 222km
Actualización: 24/05/2018 09:30
Parcialmente nuboso
Parcialmente nuboso
 Viento del varies
Viento: varies 4 km/h
Temperatura: 16°C
Rocío: 14°C
Humedad: 88%
Barómetro: 1015 hPa
Clouds: Parcialmente nuboso
Visibility: 7 km
2018/05/24 07:30 LECO 240730Z VRB02KT 7000 NSC 16/14 Q1015 NOSIG
LEVX - Vigo/Peinador, Spain
Distance from station: O 214km
Actualización: 24/05/2018 10:00
Despejado
Despejado
 Viento del SSO
Viento: SSO 6 km/h
Temperatura: 17°C
Rocío: 12°C
Humedad: 73%
Resumen: Despejado
Visibility: greater than 10 km
2018/05/24 08:00 LEVX 240800Z 21003KT 160V240 CAVOK 17/12 Q101